createdAt,value
2022-10-18T00:00:42.917Z,98070.91
2022-10-18T00:03:09.504Z,98062.75
2022-10-18T00:05:36.058Z,98067.41
2022-10-18T00:08:02.543Z,98065.59
2022-10-18T00:10:29.223Z,98065.97
2022-10-18T00:12:55.675Z,98073.28
2022-10-18T00:15:22.262Z,98063.66
2022-10-18T00:17:49.006Z,98060.56
2022-10-18T00:20:15.709Z,98064.66
2022-10-18T00:22:42.426Z,98061.00
2022-10-18T00:25:09.415Z,98055.34
2022-10-18T00:27:36.076Z,98060.66
2022-10-18T00:30:02.641Z,98062.31
2022-10-18T00:32:29.466Z,98055.69
2022-10-18T00:34:56.184Z,98058.09
2022-10-18T00:37:22.695Z,98060.75
2022-10-18T00:39:49.372Z,98052.41
2022-10-18T00:42:19.555Z,98048.75
2022-10-18T00:44:46.237Z,98051.22
2022-10-18T00:47:13.591Z,98057.19
2022-10-18T00:49:44.401Z,98056.16
2022-10-18T00:52:30.959Z,98055.97
2022-10-18T00:54:57.679Z,98047.84
2022-10-18T00:57:24.436Z,98041.50
2022-10-18T00:59:51.280Z,98045.81
2022-10-18T01:02:18.529Z,98043.97
2022-10-18T01:04:45.782Z,98044.16
2022-10-18T01:07:18.360Z,98040.31
2022-10-18T01:09:49.913Z,98040.31
2022-10-18T01:12:20.630Z,98044.63
2022-10-18T01:14:54.904Z,98040.31
2022-10-18T01:17:33.346Z,98037.84
2022-10-18T01:20:15.389Z,98030.66
2022-10-18T01:22:46.067Z,98035.75
2022-10-18T01:25:18.695Z,98037.78
2022-10-18T01:27:49.866Z,98037.78
2022-10-18T01:30:16.368Z,98040.44
2022-10-18T01:32:47.832Z,98041.06
2022-10-18T01:35:15.259Z,98035.75
2022-10-18T01:37:41.814Z,98035.75
2022-10-18T01:40:08.615Z,98030.44
2022-10-18T01:42:35.203Z,98023.50
2022-10-18T01:45:01.964Z,98025.16
2022-10-18T01:47:28.910Z,98021.47
2022-10-18T01:49:59.694Z,98024.31
2022-10-18T01:52:26.321Z,98025.16
2022-10-18T01:54:52.976Z,98027.16
2022-10-18T01:57:19.611Z,98023.78
2022-10-18T01:59:52.497Z,98021.69
2022-10-18T02:02:22.222Z,98028.25
2022-10-18T02:04:53.983Z,98022.97
2022-10-18T02:07:25.698Z,98020.69
2022-10-18T02:09:55.311Z,98027.25
2022-10-18T02:12:21.890Z,98025.44
2022-10-18T02:14:48.482Z,98016.63
2022-10-18T02:17:15.027Z,98020.94
2022-10-18T02:19:46.642Z,98022.59
2022-10-18T02:22:13.484Z,98023.41
2022-10-18T02:24:42.210Z,98020.56
2022-10-18T02:27:09.082Z,98015.25
2022-10-18T02:29:35.784Z,98018.53
2022-10-18T02:32:18.447Z,98018.72
2022-10-18T02:34:47.031Z,98011.59
2022-10-18T02:37:13.643Z,98016.91
2022-10-18T02:39:44.211Z,98013.22
2022-10-18T02:42:10.984Z,98014.91
2022-10-18T02:44:38.387Z,98006.28
2022-10-18T02:47:05.352Z,98008.13
2022-10-18T02:49:31.934Z,98005.66
2022-10-18T02:51:58.517Z,98004.00
2022-10-18T02:54:25.044Z,98005.66
2022-10-18T02:56:51.705Z,97997.25
2022-10-18T02:59:18.414Z,97998.06
2022-10-18T03:01:45.071Z,98001.72
2022-10-18T03:04:11.722Z,98003.75
2022-10-18T03:06:38.305Z,97997.00
2022-10-18T03:09:06.037Z,97998.00
2022-10-18T03:11:32.743Z,97997.00
2022-10-18T03:13:59.336Z,97999.00
2022-10-18T03:16:25.998Z,98004.13
2022-10-18T03:18:52.627Z,97995.53
2022-10-18T03:21:19.293Z,97994.72
2022-10-18T03:23:45.965Z,97989.59
2022-10-18T03:26:13.663Z,97992.41
2022-10-18T03:28:40.406Z,97994.44
2022-10-18T03:31:06.974Z,97994.63
2022-10-18T03:33:33.606Z,97999.47
2022-10-18T03:36:00.310Z,97996.81
2022-10-18T03:38:26.963Z,98001.13
2022-10-18T03:40:53.850Z,98008.25
2022-10-18T03:43:20.441Z,98002.31
2022-10-18T03:45:47.017Z,97997.00
2022-10-18T03:48:13.749Z,98000.66
2022-10-18T03:50:40.430Z,98008.81
2022-10-18T03:53:06.972Z,98009.00
2022-10-18T03:55:33.607Z,98009.00
2022-10-18T03:58:00.237Z,98010.38
2022-10-18T04:00:26.791Z,98010.06
2022-10-18T04:02:55.824Z,98014.72
2022-10-18T04:05:24.334Z,98011.06
2022-10-18T04:07:50.993Z,98013.09
2022-10-18T04:10:18.744Z,98010.44
2022-10-18T04:12:45.420Z,98000.66
2022-10-18T04:15:11.968Z,98004.13
2022-10-18T04:17:38.487Z,98003.47
2022-10-18T04:20:05.459Z,98007.16
2022-10-18T04:22:32.043Z,98008.16
2022-10-18T04:24:58.738Z,98004.22
2022-10-18T04:27:25.337Z,98009.53
2022-10-18T04:29:52.013Z,98012.19
2022-10-18T04:32:18.513Z,98006.44
2022-10-18T04:34:45.113Z,98013.56
2022-10-18T04:37:11.696Z,98018.19
2022-10-18T04:39:38.369Z,98014.56
2022-10-18T04:42:04.963Z,98014.56
2022-10-18T04:44:31.563Z,98009.41
2022-10-18T04:46:58.096Z,98011.63
2022-10-18T04:49:24.680Z,98018.94
2022-10-18T04:51:51.227Z,98013.63
2022-10-18T04:54:17.913Z,98018.94
2022-10-18T04:56:44.443Z,98021.41
2022-10-18T04:59:11.023Z,98020.59
2022-10-18T05:01:37.531Z,98024.25
2022-10-18T05:04:04.299Z,98019.31
2022-10-18T05:06:30.904Z,98024.34
2022-10-18T05:08:57.411Z,98018.41
2022-10-18T05:11:24.100Z,98013.09
2022-10-18T05:13:50.992Z,98008.81
2022-10-18T05:16:17.764Z,98007.78
2022-10-18T05:18:44.339Z,98005.78
2022-10-18T05:21:12.386Z,98000.66
2022-10-18T05:23:38.944Z,98002.31
2022-10-18T05:26:06.387Z,98004.13
2022-10-18T05:28:39.249Z,97998.84
2022-10-18T05:31:06.905Z,97993.53
2022-10-18T05:33:33.472Z,97994.69
2022-10-18T05:36:00.129Z,98002.84
2022-10-18T05:38:26.721Z,98000.38
2022-10-18T05:40:53.338Z,97994.88
2022-10-18T05:43:19.993Z,97994.25
2022-10-18T05:45:50.295Z,98000.47
2022-10-18T05:48:16.852Z,98012.97
2022-10-18T05:50:43.674Z,98010.97
2022-10-18T05:53:12.368Z,98010.97
2022-10-18T05:55:51.305Z,98011.94
2022-10-18T05:58:17.876Z,98011.31
2022-10-18T06:00:44.455Z,98017.25
2022-10-18T06:03:11.011Z,98013.97
2022-10-18T06:05:40.506Z,98019.25
2022-10-18T06:08:10.182Z,98016.97
2022-10-18T06:10:39.074Z,98021.28
2022-10-18T06:13:05.824Z,98022.91
2022-10-18T06:15:32.383Z,98028.03
2022-10-18T06:17:59.234Z,98033.16
2022-10-18T06:20:25.980Z,98032.00
2022-10-18T06:22:53.663Z,98030.81
2022-10-18T06:25:20.287Z,98036.75
2022-10-18T06:27:47.013Z,98031.72
2022-10-18T06:30:13.889Z,98037.47
2022-10-18T06:32:40.568Z,98039.94
2022-10-18T06:35:08.798Z,98048.38
2022-10-18T06:37:37.106Z,98042.91
2022-10-18T06:40:04.293Z,98036.78
2022-10-18T06:42:32.103Z,98044.53
2022-10-18T06:45:00.549Z,98046.19
2022-10-18T06:47:27.262Z,98047.81
2022-10-18T06:49:53.962Z,98056.78
2022-10-18T06:52:25.679Z,98055.97
2022-10-18T06:54:52.941Z,98052.13
2022-10-18T06:57:20.272Z,98052.75
2022-10-18T06:59:47.004Z,98057.88
2022-10-18T07:02:19.174Z,98066.28
2022-10-18T07:04:45.901Z,98067.94
2022-10-18T07:07:12.616Z,98059.66
2022-10-18T07:09:39.393Z,98059.28
2022-10-18T07:12:08.417Z,98064.03
2022-10-18T07:14:35.373Z,98069.41
2022-10-18T07:17:02.081Z,98071.72
2022-10-18T07:19:28.776Z,98069.91
2022-10-18T07:21:55.640Z,98072.41
2022-10-18T07:24:22.453Z,98077.78
2022-10-18T07:26:49.236Z,98076.41
2022-10-18T07:29:16.053Z,98082.47
2022-10-18T07:31:42.945Z,98075.13
2022-10-18T07:34:10.987Z,98079.88
2022-10-18T07:36:37.676Z,98088.94
2022-10-18T07:39:04.608Z,98088.38
2022-10-18T07:41:33.737Z,98096.44
2022-10-18T07:44:00.520Z,98101.19
2022-10-18T07:46:27.361Z,98107.56
2022-10-18T07:48:53.991Z,98109.50
2022-10-18T07:51:20.726Z,98114.88
2022-10-18T07:53:47.734Z,98119.00
2022-10-18T07:56:20.697Z,98119.25
2022-10-18T07:58:48.360Z,98110.66
2022-10-18T08:01:15.319Z,98104.72
2022-10-18T08:03:42.235Z,98107.19
2022-10-18T08:06:10.076Z,98111.28
2022-10-18T08:08:37.208Z,98101.97
2022-10-18T08:11:04.598Z,98118.34
2022-10-18T08:13:31.429Z,98128.97
2022-10-18T08:16:01.912Z,98130.22
2022-10-18T08:18:28.709Z,98133.31
2022-10-18T08:20:55.640Z,98125.44
2022-10-18T08:23:22.447Z,98139.06
2022-10-18T08:25:49.555Z,98133.53
2022-10-18T08:28:17.663Z,98136.19
2022-10-18T08:30:44.487Z,98132.25
2022-10-18T08:33:11.391Z,98147.09
2022-10-18T08:35:38.328Z,98156.28
2022-10-18T08:38:05.568Z,98152.94
2022-10-18T08:40:42.700Z,98151.56
2022-10-18T08:43:21.861Z,98150.59
2022-10-18T08:45:48.793Z,98152.50
2022-10-18T08:48:24.056Z,98158.31
2022-10-18T08:50:50.853Z,98154.31
2022-10-18T08:53:20.227Z,98156.38
2022-10-18T08:55:58.143Z,98159.44
2022-10-18T08:58:27.550Z,98155.13
2022-10-18T09:01:08.623Z,98161.59
2022-10-18T09:03:50.143Z,98166.34
2022-10-18T09:06:22.668Z,98166.22
2022-10-18T09:08:54.014Z,98163.75
2022-10-18T09:11:38.063Z,98165.38
2022-10-18T09:14:14.570Z,98173.16
2022-10-18T09:17:00.367Z,98171.59
2022-10-18T09:19:30.625Z,98181.16
2022-10-18T09:22:09.688Z,98181.22
2022-10-18T09:24:41.821Z,98182.88
2022-10-18T09:27:19.021Z,98184.09
2022-10-18T09:29:55.615Z,98195.38
2022-10-18T09:32:42.662Z,98193.97
2022-10-18T09:35:14.878Z,98190.75
2022-10-18T09:37:42.262Z,98193.63
2022-10-18T09:40:19.006Z,98191.97
2022-10-18T09:45:40.787Z,98195.88
2022-10-18T09:48:14.308Z,98196.06
2022-10-18T09:53:38.187Z,98195.41
2022-10-18T09:58:54.419Z,98208.72
2022-10-18T10:01:26.834Z,98202.31
2022-10-18T10:03:58.722Z,98206.56
2022-10-18T10:09:16.613Z,98212.75
2022-10-18T10:11:49.999Z,98211.56
2022-10-18T10:14:25.209Z,98214.34
2022-10-18T10:16:53.414Z,98211.34
2022-10-18T10:22:10.247Z,98219.03
2022-10-18T10:24:49.000Z,98215.41
2022-10-18T10:27:21.078Z,98216.66
2022-10-18T10:29:52.693Z,98219.53
2022-10-18T10:43:18.155Z,98216.78
2022-10-18T10:45:56.830Z,98209.44
2022-10-18T10:48:23.703Z,98209.91
2022-10-18T10:51:09.411Z,98211.59
2022-10-18T10:53:37.700Z,98210.44
2022-10-18T10:56:05.598Z,98203.59
2022-10-18T10:58:37.815Z,98214.81
2022-10-18T11:04:24.344Z,98218.34
2022-10-18T11:06:53.558Z,98211.59
2022-10-18T11:09:29.411Z,98218.56
2022-10-18T11:12:15.366Z,98212.53
2022-10-18T11:14:42.794Z,98209.56
2022-10-18T11:20:12.890Z,98217.13
2022-10-18T11:22:45.789Z,98211.69
2022-10-18T11:25:21.051Z,98207.75
2022-10-18T11:27:55.356Z,98207.75
2022-10-18T11:31:00.873Z,98213.75
2022-10-18T11:33:49.469Z,98210.00
2022-10-18T11:36:18.776Z,98203.53
2022-10-18T11:39:05.904Z,98202.63
2022-10-18T11:41:35.770Z,98196.34
2022-10-18T11:44:04.357Z,98198.63
2022-10-18T11:46:49.731Z,98195.91
2022-10-18T11:49:30.076Z,98192.84
2022-10-18T11:52:09.563Z,98191.44
2022-10-18T11:54:37.215Z,98197.66
2022-10-18T11:57:19.699Z,98193.72
2022-10-18T12:00:05.494Z,98194.31
2022-10-18T12:02:51.081Z,98197.56
2022-10-18T12:10:44.328Z,98198.09
2022-10-18T12:13:23.257Z,98202.22
2022-10-18T12:15:50.008Z,98207.44
2022-10-18T12:18:18.073Z,98193.44
2022-10-18T12:20:55.093Z,98193.94
2022-10-18T12:23:31.443Z,98200.28
2022-10-18T12:26:02.614Z,98196.19
2022-10-18T12:28:42.124Z,98192.72
2022-10-18T12:31:25.854Z,98189.31
2022-10-18T12:33:57.097Z,98194.44
2022-10-18T12:36:35.841Z,98187.00
2022-10-18T12:39:03.889Z,98191.13
2022-10-18T12:41:31.915Z,98183.56
2022-10-18T12:44:06.317Z,98182.53
2022-10-18T12:46:48.409Z,98179.38
2022-10-18T12:49:15.356Z,98180.06
2022-10-18T12:52:05.361Z,98170.44
2022-10-18T12:54:33.459Z,98175.78
2022-10-18T12:57:00.969Z,98171.22
2022-10-18T12:59:27.502Z,98171.19
2022-10-18T13:01:54.091Z,98173.47
2022-10-18T13:04:38.984Z,98168.19
2022-10-18T13:07:05.550Z,98170.28
2022-10-18T13:09:36.340Z,98151.94
2022-10-18T13:12:05.973Z,98165.41
2022-10-18T13:14:35.832Z,98169.16
2022-10-18T13:17:14.600Z,98167.47
2022-10-18T13:19:51.471Z,98166.47
2022-10-18T13:22:24.851Z,98164.41
2022-10-18T13:25:04.706Z,98166.50
2022-10-18T13:27:37.300Z,98171.59
2022-10-18T13:30:19.962Z,98162.75
2022-10-18T13:32:57.329Z,98163.16
2022-10-18T13:35:42.890Z,98165.03
2022-10-18T13:38:24.702Z,98158.66
2022-10-18T13:41:04.364Z,98160.25
2022-10-18T13:43:52.439Z,98168.41
2022-10-18T13:46:19.188Z,98176.53
2022-10-18T13:48:46.964Z,98169.81
2022-10-18T13:51:16.435Z,98173.00
2022-10-18T13:53:55.316Z,98176.63
2022-10-18T13:56:33.919Z,98177.88
2022-10-18T13:59:13.705Z,98175.13
2022-10-18T14:01:59.182Z,98181.38
2022-10-18T14:04:31.796Z,98190.09
2022-10-18T14:07:02.020Z,98186.78
2022-10-18T14:09:45.575Z,98187.84
2022-10-18T14:12:13.655Z,98191.25
2022-10-18T14:14:43.647Z,98195.00
2022-10-18T14:17:17.767Z,98186.59
2022-10-18T14:19:45.146Z,98191.31
2022-10-18T14:22:14.426Z,98197.91
2022-10-18T14:24:42.524Z,98201.38
2022-10-18T14:27:19.449Z,98202.91
2022-10-18T14:29:46.611Z,98195.03
2022-10-18T14:32:22.450Z,98194.75
2022-10-18T14:34:48.927Z,98197.75
2022-10-18T14:37:41.811Z,98200.56
2022-10-18T14:40:24.546Z,98197.59
2022-10-18T14:42:50.988Z,98197.88
2022-10-18T14:45:18.470Z,98199.00
2022-10-18T14:47:45.013Z,98201.88
2022-10-18T14:50:27.994Z,98196.72
2022-10-18T14:52:56.586Z,98192.19
2022-10-18T14:55:24.236Z,98197.72
2022-10-18T14:57:50.687Z,98195.03
2022-10-18T15:00:25.635Z,98199.72
2022-10-18T15:02:52.143Z,98215.25
2022-10-18T15:05:21.587Z,98205.00
2022-10-18T15:07:48.482Z,98213.13
2022-10-18T15:10:16.568Z,98203.63
2022-10-18T15:13:08.385Z,98216.66
2022-10-18T15:15:30.787Z,98215.03
2022-10-18T15:17:57.557Z,98211.31
2022-10-18T15:20:32.039Z,98202.56
2022-10-18T15:23:17.282Z,98206.97
2022-10-18T15:25:43.762Z,98206.06
2022-10-18T15:28:27.738Z,98206.84
2022-10-18T15:30:54.289Z,98203.44
2022-10-18T15:33:21.876Z,98204.94
2022-10-18T15:35:48.373Z,98208.44
2022-10-18T15:38:17.900Z,98209.09
2022-10-18T15:40:44.391Z,98223.31
2022-10-18T15:43:23.211Z,98221.28
2022-10-18T15:45:50.635Z,98226.94
2022-10-18T15:48:27.788Z,98221.72
2022-10-18T15:50:55.027Z,98230.31
2022-10-18T15:53:21.476Z,98232.19
2022-10-18T15:55:52.347Z,98225.78
2022-10-18T15:58:20.155Z,98227.22
2022-10-18T16:00:46.992Z,98230.81
2022-10-18T16:03:13.736Z,98234.22
2022-10-18T16:05:40.219Z,98224.19
2022-10-18T16:08:06.792Z,98228.09
2022-10-18T16:10:33.328Z,98226.19
2022-10-18T16:12:59.866Z,98225.09
2022-10-18T16:15:26.305Z,98245.38
2022-10-18T16:17:52.860Z,98237.19
2022-10-18T16:20:23.494Z,98233.25
2022-10-18T16:22:50.001Z,98243.88
2022-10-18T16:25:16.742Z,98241.53
2022-10-18T16:27:43.210Z,98247.03
2022-10-18T16:30:14.171Z,98244.91
2022-10-18T16:32:40.947Z,98246.91
2022-10-18T16:35:07.912Z,98248.72
2022-10-18T16:37:34.375Z,98250.53
2022-10-18T16:40:00.877Z,98250.38
2022-10-18T16:42:27.482Z,98251.38
2022-10-18T16:44:55.056Z,98257.13
2022-10-18T16:47:21.702Z,98252.03
2022-10-18T16:49:48.535Z,98252.34
2022-10-18T16:52:14.992Z,98253.81
2022-10-18T16:54:41.452Z,98260.09
2022-10-18T16:57:09.691Z,98267.13
2022-10-18T16:59:36.119Z,98265.44
2022-10-18T17:02:06.423Z,98257.25
2022-10-18T17:04:32.921Z,98258.88
2022-10-18T17:06:59.510Z,98268.09
2022-10-18T17:09:25.973Z,98266.06
2022-10-18T17:11:52.442Z,98261.78
2022-10-18T17:14:19.010Z,98262.41
2022-10-18T17:16:48.278Z,98267.47
2022-10-18T17:19:19.403Z,98271.59
2022-10-18T17:21:46.132Z,98278.47
2022-10-18T17:24:12.640Z,98274.13
2022-10-18T17:26:39.110Z,98275.66
2022-10-18T17:29:06.450Z,98285.84
2022-10-18T17:31:33.222Z,98293.78
2022-10-18T17:34:01.808Z,98290.94
2022-10-18T17:36:29.125Z,98290.84
2022-10-18T17:38:55.851Z,98292.59
2022-10-18T17:41:22.596Z,98286.44
2022-10-18T17:43:49.132Z,98284.75
2022-10-18T17:46:15.907Z,98290.41
2022-10-18T17:48:42.535Z,98296.00
2022-10-18T17:51:13.962Z,98283.34
2022-10-18T17:53:40.521Z,98284.47
2022-10-18T17:56:07.887Z,98282.28
2022-10-18T17:58:34.721Z,98283.03
2022-10-18T18:01:10.420Z,98295.34
2022-10-18T18:03:36.990Z,98296.16
2022-10-18T18:06:13.642Z,98292.53
2022-10-18T18:08:40.109Z,98294.88
2022-10-18T18:11:07.082Z,98304.84
2022-10-18T18:13:33.605Z,98303.44
2022-10-18T18:16:09.517Z,98311.94
2022-10-18T18:18:36.046Z,98307.66
2022-10-18T18:21:02.474Z,98316.31
2022-10-18T18:23:29.167Z,98314.25
2022-10-18T18:25:56.638Z,98319.81
2022-10-18T18:28:23.161Z,98322.38
2022-10-18T18:30:49.598Z,98324.72
2022-10-18T18:33:16.073Z,98312.41
2022-10-18T18:35:42.531Z,98316.72
2022-10-18T18:38:09.250Z,98316.59
2022-10-18T18:40:35.849Z,98313.28
2022-10-18T18:43:18.956Z,98306.50
2022-10-18T18:45:52.219Z,98318.16
2022-10-18T18:48:19.944Z,98322.09
2022-10-18T18:50:50.616Z,98320.97
2022-10-18T18:53:17.238Z,98306.84
2022-10-18T18:55:43.797Z,98309.06
2022-10-18T18:58:10.731Z,98304.66
2022-10-18T19:00:43.548Z,98309.44
2022-10-18T19:03:11.552Z,98312.22
2022-10-18T19:05:38.044Z,98306.69
2022-10-18T19:08:05.062Z,98303.59
2022-10-18T19:10:31.616Z,98302.22
2022-10-18T19:12:58.304Z,98303.19
2022-10-18T19:15:25.067Z,98304.34
2022-10-18T19:17:51.626Z,98308.78
2022-10-18T19:20:18.247Z,98314.59
2022-10-18T19:22:45.156Z,98309.75
2022-10-18T19:25:11.690Z,98302.56
2022-10-18T19:27:38.264Z,98306.06
2022-10-18T19:30:05.475Z,98297.50
2022-10-18T19:32:32.084Z,98304.81
2022-10-18T19:34:58.555Z,98311.16
2022-10-18T19:37:25.210Z,98307.56
2022-10-18T19:39:51.788Z,98312.13
2022-10-18T19:42:22.615Z,98303.97
2022-10-18T19:44:52.704Z,98308.66
2022-10-18T19:47:20.501Z,98305.09
2022-10-18T19:49:48.036Z,98300.41
2022-10-18T19:52:14.704Z,98305.66
2022-10-18T19:54:41.277Z,98309.66
2022-10-18T19:57:07.948Z,98313.53
2022-10-18T19:59:36.090Z,98322.50
2022-10-18T20:02:04.762Z,98317.97
2022-10-18T20:04:34.377Z,98322.66
2022-10-18T20:07:02.476Z,98322.63
2022-10-18T20:09:29.279Z,98323.88
2022-10-18T20:11:55.774Z,98319.72
2022-10-18T20:14:22.371Z,98329.41
2022-10-18T20:16:48.840Z,98320.84
2022-10-18T20:19:15.382Z,98324.28
2022-10-18T20:21:41.846Z,98327.47
2022-10-18T20:24:09.378Z,98322.50
2022-10-18T20:26:36.126Z,98317.81
2022-10-18T20:29:02.933Z,98311.44
2022-10-18T20:31:30.745Z,98313.94
2022-10-18T20:33:58.284Z,98314.91
2022-10-18T20:36:25.065Z,98314.22
2022-10-18T20:38:51.605Z,98320.00
2022-10-18T20:41:22.668Z,98314.34
2022-10-18T20:43:53.317Z,98320.44
2022-10-18T20:46:20.600Z,98311.56
2022-10-18T20:48:47.219Z,98325.75
2022-10-18T20:51:13.781Z,98328.34
2022-10-18T20:53:40.447Z,98326.50
2022-10-18T20:56:10.928Z,98334.53
2022-10-18T20:58:37.979Z,98337.56
2022-10-18T21:01:08.525Z,98336.44
2022-10-18T21:03:38.878Z,98341.34
2022-10-18T21:06:15.372Z,98344.81
2022-10-18T21:08:42.120Z,98335.88
2022-10-18T21:11:08.806Z,98345.75
2022-10-18T21:13:35.588Z,98334.97
2022-10-18T21:16:02.390Z,98325.88
2022-10-18T21:18:29.616Z,98328.50
2022-10-18T21:20:56.137Z,98323.13
2022-10-18T21:23:22.601Z,98336.56
2022-10-18T21:25:49.135Z,98337.06
2022-10-18T21:28:16.188Z,98339.19
2022-10-18T21:30:42.676Z,98332.72
2022-10-18T21:33:09.157Z,98328.94
2022-10-18T21:35:38.711Z,98325.59
2022-10-18T21:38:05.358Z,98322.63
2022-10-18T21:40:32.274Z,98325.75
2022-10-18T21:42:58.725Z,98314.97
2022-10-18T21:45:25.161Z,98318.09
2022-10-18T21:47:51.688Z,98315.03
2022-10-18T21:50:18.182Z,98311.19
2022-10-18T21:52:44.649Z,98306.91
2022-10-18T21:55:11.180Z,98306.34
2022-10-18T21:57:37.613Z,98308.41
2022-10-18T22:00:05.061Z,98304.41
2022-10-18T22:02:31.793Z,98299.84
2022-10-18T22:04:58.433Z,98295.44
2022-10-18T22:07:24.880Z,98294.59
2022-10-18T22:09:51.340Z,98284.25
2022-10-18T22:12:17.787Z,98290.31
2022-10-18T22:14:44.234Z,98289.22
2022-10-18T22:17:10.693Z,98292.25
2022-10-18T22:19:37.274Z,98295.00
2022-10-18T22:22:03.765Z,98291.09
2022-10-18T22:24:30.330Z,98294.94
2022-10-18T22:26:57.271Z,98296.47
2022-10-18T22:29:23.827Z,98299.34
2022-10-18T22:31:51.243Z,98301.41
2022-10-18T22:34:18.905Z,98298.66
2022-10-18T22:36:45.470Z,98295.81
2022-10-18T22:39:14.354Z,98294.94
2022-10-18T22:41:41.276Z,98290.22
2022-10-18T22:44:12.202Z,98286.03
2022-10-18T22:46:38.889Z,98279.38
2022-10-18T22:49:05.462Z,98279.66
2022-10-18T22:51:31.980Z,98279.66
2022-10-18T22:53:58.565Z,98278.00
2022-10-18T22:56:25.101Z,98284.97
2022-10-18T22:58:51.602Z,98278.88
2022-10-18T23:01:19.115Z,98282.22
2022-10-18T23:03:45.641Z,98279.97
2022-10-18T23:06:20.470Z,98287.38
2022-10-18T23:08:47.240Z,98287.63
2022-10-18T23:11:13.718Z,98280.47
2022-10-18T23:13:40.173Z,98289.84
2022-10-18T23:16:06.817Z,98284.88
2022-10-18T23:18:33.447Z,98278.56
2022-10-18T23:21:00.566Z,98280.47
2022-10-18T23:23:29.017Z,98281.00
2022-10-18T23:25:55.597Z,98280.91
2022-10-18T23:28:22.106Z,98287.91
2022-10-18T23:30:48.644Z,98288.88
2022-10-18T23:33:15.086Z,98287.22
2022-10-18T23:35:41.597Z,98288.88
2022-10-18T23:38:08.027Z,98286.69
2022-10-18T23:40:34.486Z,98286.25
2022-10-18T23:43:01.076Z,98292.13
2022-10-18T23:45:27.615Z,98288.91
2022-10-18T23:47:54.220Z,98287.34
2022-10-18T23:50:20.681Z,98292.59
2022-10-18T23:52:47.188Z,98288.44
2022-10-18T23:55:13.735Z,98292.25
2022-10-18T23:57:40.209Z,98293.94
